Al Hillah, Iraq
Current Conditions -  °F | °C
As of 6:00 AM on Sunday 26 Oct 2014 (Local Time) from ORNI Reporting Station
Few Clouds Few Clouds  
Wind Chill: 64°   Ceiling: Unl
Heat Index: 64°   Visibility: 5mi
Dew Point: 50°   Wind: 8mph
Humidity: 59%   Direction: 340°NNW
Pressure: 30"   Gusts: NA
Location:  32.48°N, 44.46°E
Report Text: ORNI 260300Z 34007KT 8000 FEW040 18/10 Q1016 NOSIG
Loading
Personal Weather Stations






























Interactive Weather Map
Tropical Storm Tracking
New forecast layout! Learn more

10-Day Weather Forecast

Advertisements
Track Severe Weather on mobile